createdAt,value
2019-05-21T00:00:57.069Z,1006.16
2019-05-21T00:01:56.989Z,1006.11
2019-05-21T00:02:56.893Z,1006.13
2019-05-21T00:03:56.817Z,1006.18
2019-05-21T00:04:56.733Z,1006.18
2019-05-21T00:05:56.652Z,1006.16
2019-05-21T00:06:56.592Z,1006.13
2019-05-21T00:07:56.485Z,1006.20
2019-05-21T00:08:56.399Z,1006.18
2019-05-21T00:09:56.331Z,1006.15
2019-05-21T00:10:56.242Z,1006.17
2019-05-21T00:11:56.182Z,1006.17
2019-05-21T00:12:56.075Z,1006.14
2019-05-21T00:13:55.998Z,1006.17
2019-05-21T00:14:55.910Z,1006.17
2019-05-21T00:15:55.836Z,1006.12
2019-05-21T00:16:55.757Z,1006.15
2019-05-21T00:17:55.671Z,1006.12
2019-05-21T00:18:55.577Z,1006.10
2019-05-21T00:19:55.503Z,1006.10
2019-05-21T00:20:55.433Z,1006.11
2019-05-21T00:21:55.358Z,1006.11
2019-05-21T00:22:55.254Z,1006.08
2019-05-21T00:23:55.175Z,1006.09
2019-05-21T00:24:55.102Z,1006.07
2019-05-21T00:25:55.006Z,1006.04
2019-05-21T00:26:54.937Z,1006.06
2019-05-21T00:27:54.861Z,1006.04
2019-05-21T00:28:54.759Z,1006.01
2019-05-21T00:29:54.675Z,1006.00
2019-05-21T00:30:54.611Z,1005.99
2019-05-21T00:31:54.535Z,1006.02
2019-05-21T00:32:54.429Z,1006.01
2019-05-21T00:33:54.353Z,1006.01
2019-05-21T00:34:54.266Z,1005.99
2019-05-21T00:35:54.193Z,1006.01
2019-05-21T00:36:54.257Z,1006.00
2019-05-21T00:37:54.042Z,1005.99
2019-05-21T00:38:53.938Z,1005.96
2019-05-21T00:39:53.865Z,1006.02
2019-05-21T00:40:53.772Z,1005.97
2019-05-21T00:41:53.699Z,1005.94
2019-05-21T00:42:53.616Z,1005.99
2019-05-21T00:43:53.531Z,1005.97
2019-05-21T00:44:53.463Z,1006.00
2019-05-21T00:45:53.366Z,1005.96
2019-05-21T00:46:53.279Z,1005.98
2019-05-21T00:47:53.215Z,1006.00
2019-05-21T00:48:53.116Z,1005.95
2019-05-21T00:49:53.038Z,1005.97
2019-05-21T00:50:52.941Z,1005.95
2019-05-21T00:52:06.451Z,1005.90
2019-05-21T00:52:52.824Z,1005.96
2019-05-21T00:53:52.711Z,1005.93
2019-05-21T00:54:52.619Z,1005.93
2019-05-21T00:55:52.539Z,1005.93
2019-05-21T00:56:52.458Z,1005.93
2019-05-21T00:57:52.391Z,1005.90
2019-05-21T00:58:52.288Z,1005.91
2019-05-21T00:59:52.218Z,1005.96
2019-05-21T01:00:52.127Z,1005.93
2019-05-21T01:01:52.050Z,1005.92
2019-05-21T01:02:51.973Z,1005.94
2019-05-21T01:03:51.877Z,1005.92
2019-05-21T01:05:00.327Z,1005.93
2019-05-21T01:05:51.724Z,1005.90
2019-05-21T01:06:51.625Z,1005.93
2019-05-21T01:07:51.569Z,1005.93
2019-05-21T01:08:51.471Z,1005.94
2019-05-21T01:09:51.385Z,1005.97
2019-05-21T01:10:51.298Z,1005.96
2019-05-21T01:11:51.218Z,1005.92
2019-05-21T01:12:51.152Z,1005.96
2019-05-21T01:13:51.059Z,1005.94
2019-05-21T01:14:50.973Z,1005.97
2019-05-21T01:15:50.945Z,1005.91
2019-05-21T01:16:50.874Z,1005.96
2019-05-21T01:17:50.740Z,1005.94
2019-05-21T01:18:50.662Z,1005.94
2019-05-21T01:19:50.559Z,1005.98
2019-05-21T01:20:50.486Z,1005.96
2019-05-21T01:21:50.399Z,1005.97
2019-05-21T01:22:50.330Z,1005.94
2019-05-21T01:23:50.233Z,1005.97
2019-05-21T01:24:50.157Z,1005.95
2019-05-21T01:25:50.065Z,1005.94
2019-05-21T01:26:49.987Z,1005.90
2019-05-21T01:27:49.917Z,1005.89
2019-05-21T01:28:49.821Z,1005.92
2019-05-21T01:29:49.737Z,1005.91
2019-05-21T01:30:49.658Z,1005.93
2019-05-21T01:31:49.567Z,1005.93
2019-05-21T01:32:49.511Z,1005.98
2019-05-21T01:33:49.402Z,1005.99
2019-05-21T01:34:49.326Z,1005.97
2019-05-21T01:35:49.245Z,1005.98
2019-05-21T01:36:49.161Z,1005.99
2019-05-21T01:37:49.085Z,1005.96
2019-05-21T01:38:48.997Z,1005.94
2019-05-21T01:39:48.914Z,1005.93
2019-05-21T01:40:48.833Z,1005.94
2019-05-21T01:41:48.749Z,1005.92
2019-05-21T01:42:48.674Z,1005.93
2019-05-21T01:43:48.581Z,1005.85
2019-05-21T01:44:48.505Z,1005.91
2019-05-21T01:45:48.419Z,1005.96
2019-05-21T01:46:48.334Z,1005.95
2019-05-21T01:47:48.271Z,1005.96
2019-05-21T01:48:48.170Z,1005.94
2019-05-21T01:49:48.085Z,1005.95
2019-05-21T01:50:48.009Z,1005.95
2019-05-21T01:51:47.921Z,1005.91
2019-05-21T01:52:47.880Z,1005.93
2019-05-21T01:53:47.765Z,1005.92
2019-05-21T01:54:47.670Z,1005.92
2019-05-21T01:55:47.636Z,1005.90
2019-05-21T01:56:47.507Z,1005.92
2019-05-21T01:57:47.444Z,1005.94
2019-05-21T01:58:47.349Z,1005.91
2019-05-21T01:59:47.268Z,1005.89
2019-05-21T02:00:47.176Z,1005.89
2019-05-21T02:01:47.106Z,1005.88
2019-05-21T02:02:47.023Z,1005.84
2019-05-21T02:03:46.929Z,1005.87
2019-05-21T02:04:46.854Z,1005.85
2019-05-21T02:05:46.765Z,1005.84
2019-05-21T02:06:49.214Z,1005.84
2019-05-21T02:07:46.618Z,1005.81
2019-05-21T02:08:46.513Z,1005.81
2019-05-21T02:09:46.437Z,1005.79
2019-05-21T02:10:46.356Z,1005.80
2019-05-21T02:11:46.274Z,1005.83
2019-05-21T02:12:46.213Z,1005.84
2019-05-21T02:13:46.114Z,1005.80
2019-05-21T02:14:46.029Z,1005.85
2019-05-21T02:15:45.943Z,1005.84
2019-05-21T02:16:45.857Z,1005.86
2019-05-21T02:17:45.798Z,1005.82
2019-05-21T02:18:45.712Z,1005.84
2019-05-21T02:19:45.616Z,1005.85
2019-05-21T02:20:45.535Z,1005.85
2019-05-21T02:21:45.451Z,1005.84
2019-05-21T02:22:45.366Z,1005.82
2019-05-21T02:23:45.308Z,1005.84
2019-05-21T02:24:45.197Z,1005.88
2019-05-21T02:25:45.123Z,1005.87
2019-05-21T02:26:45.036Z,1005.86
2019-05-21T02:27:44.953Z,1005.91
2019-05-21T02:28:44.885Z,1005.90
2019-05-21T02:29:44.801Z,1005.91
2019-05-21T02:30:44.706Z,1005.91
2019-05-21T02:31:44.631Z,1005.90
2019-05-21T02:32:44.543Z,1005.92
2019-05-21T02:33:44.467Z,1005.95
2019-05-21T02:34:44.371Z,1005.93
2019-05-21T02:35:54.119Z,1005.94
2019-05-21T02:36:44.210Z,1006.02
2019-05-21T02:37:44.129Z,1005.91
2019-05-21T02:38:44.054Z,1005.97
2019-05-21T02:39:43.965Z,1005.97
2019-05-21T02:40:43.884Z,1005.99
2019-05-21T02:41:43.798Z,1006.00
2019-05-21T02:42:43.712Z,1006.00
2019-05-21T02:43:43.662Z,1006.00
2019-05-21T02:44:43.558Z,1006.00
2019-05-21T02:45:43.473Z,1006.01
2019-05-21T02:46:43.388Z,1005.95
2019-05-21T02:47:43.306Z,1005.99
2019-05-21T02:48:43.230Z,1006.02
2019-05-21T02:49:43.137Z,1006.02
2019-05-21T02:50:43.082Z,1006.01
2019-05-21T02:51:42.978Z,1006.01
2019-05-21T02:52:42.883Z,1006.06
2019-05-21T02:53:42.818Z,1006.04
2019-05-21T02:54:42.791Z,1006.01
2019-05-21T02:55:42.650Z,1006.04
2019-05-21T02:56:42.563Z,1006.05
2019-05-21T02:57:42.498Z,1006.06
2019-05-21T02:58:42.428Z,1006.09
2019-05-21T02:59:42.315Z,1006.10
2019-05-21T03:00:42.232Z,1006.11
2019-05-21T03:01:42.151Z,1006.14
2019-05-21T03:02:42.061Z,1006.12
2019-05-21T03:03:41.997Z,1006.10
2019-05-21T03:04:41.901Z,1006.14
2019-05-21T03:05:41.822Z,1006.19
2019-05-21T03:06:41.732Z,1006.17
2019-05-21T03:07:41.655Z,1006.29
2019-05-21T03:08:41.592Z,1006.12
2019-05-21T03:09:41.489Z,1006.19
2019-05-21T03:10:41.408Z,1006.21
2019-05-21T03:11:41.325Z,1006.20
2019-05-21T03:12:41.244Z,1006.22
2019-05-21T03:13:41.168Z,1006.25
2019-05-21T03:14:41.067Z,1006.32
2019-05-21T03:15:41.001Z,1006.29
2019-05-21T03:16:40.906Z,1006.28
2019-05-21T03:17:40.822Z,1006.27
2019-05-21T03:18:40.761Z,1006.27
2019-05-21T03:19:40.661Z,1006.27
2019-05-21T03:20:40.577Z,1006.35
2019-05-21T03:21:40.505Z,1006.33
2019-05-21T03:22:40.414Z,1006.36
2019-05-21T03:23:40.341Z,1006.31
2019-05-21T03:24:40.258Z,1006.33
2019-05-21T03:25:40.164Z,1006.34
2019-05-21T03:26:40.091Z,1006.38
2019-05-21T03:27:40.006Z,1006.39
2019-05-21T03:28:39.928Z,1006.38
2019-05-21T03:29:39.836Z,1006.44
2019-05-21T03:30:39.754Z,1006.39
2019-05-21T03:31:39.675Z,1006.40
2019-05-21T03:32:39.593Z,1006.40
2019-05-21T03:33:39.668Z,1006.38
2019-05-21T03:34:39.454Z,1006.38
2019-05-21T03:35:39.344Z,1006.35
2019-05-21T03:36:39.257Z,1006.37
2019-05-21T03:37:39.175Z,1006.33
2019-05-21T03:38:39.108Z,1006.34
2019-05-21T03:39:39.018Z,1006.33
2019-05-21T03:40:38.936Z,1006.35
2019-05-21T03:41:38.850Z,1006.32
2019-05-21T03:42:38.762Z,1006.34
2019-05-21T03:43:38.702Z,1006.36
2019-05-21T03:44:38.601Z,1006.38
2019-05-21T03:45:38.511Z,1006.32
2019-05-21T03:46:38.434Z,1006.39
2019-05-21T03:47:38.345Z,1006.38
2019-05-21T03:48:38.287Z,1006.41
2019-05-21T03:49:38.176Z,1006.38
2019-05-21T03:50:38.111Z,1006.42
2019-05-21T03:51:38.017Z,1006.44
2019-05-21T03:52:37.941Z,1006.41
2019-05-21T03:53:37.878Z,1006.42
2019-05-21T03:54:37.775Z,1006.45
2019-05-21T03:55:37.688Z,1006.43
2019-05-21T03:56:37.607Z,1006.46
2019-05-21T03:57:37.519Z,1006.46
2019-05-21T03:58:37.461Z,1006.49
2019-05-21T03:59:37.355Z,1006.50
2019-05-21T04:00:37.281Z,1006.47
2019-05-21T04:01:37.187Z,1006.49
2019-05-21T04:02:37.113Z,1006.50
2019-05-21T04:03:37.035Z,1006.52
2019-05-21T04:04:36.938Z,1006.46
2019-05-21T04:05:36.876Z,1006.47
2019-05-21T04:06:51.362Z,1006.49
2019-05-21T04:07:36.696Z,1006.43
2019-05-21T04:08:36.635Z,1006.43
2019-05-21T04:09:36.533Z,1006.47
2019-05-21T04:10:36.449Z,1006.50
2019-05-21T04:11:36.367Z,1006.48
2019-05-21T04:12:36.283Z,1006.48
2019-05-21T04:13:36.215Z,1006.48
2019-05-21T04:14:36.115Z,1006.52
2019-05-21T04:15:36.028Z,1006.51
2019-05-21T04:16:35.954Z,1006.49
2019-05-21T04:17:35.865Z,1006.49
2019-05-21T04:18:35.817Z,1006.47
2019-05-21T04:19:35.713Z,1006.51
2019-05-21T04:20:35.619Z,1006.47
2019-05-21T04:21:35.546Z,1006.54
2019-05-21T04:22:35.452Z,1006.54
2019-05-21T04:23:35.389Z,1006.52
2019-05-21T04:24:35.349Z,1006.50
2019-05-21T04:25:35.214Z,1006.48
2019-05-21T04:26:35.125Z,1006.50
2019-05-21T04:27:35.047Z,1006.51
2019-05-21T04:28:34.984Z,1006.44
2019-05-21T04:29:34.876Z,1006.51
2019-05-21T04:30:34.799Z,1006.48
2019-05-21T04:31:34.716Z,1006.50
2019-05-21T04:32:34.630Z,1006.51
2019-05-21T04:33:34.590Z,1006.49
2019-05-21T04:34:34.465Z,1006.52
2019-05-21T04:35:34.399Z,1006.44
2019-05-21T04:36:34.309Z,1006.42
2019-05-21T04:37:34.253Z,1006.37
2019-05-21T04:38:34.133Z,1006.42
2019-05-21T04:39:34.077Z,1006.42
2019-05-21T04:40:33.966Z,1006.48
2019-05-21T04:41:33.883Z,1006.46
2019-05-21T04:42:33.880Z,1006.41
2019-05-21T04:43:33.723Z,1006.39
2019-05-21T04:44:33.666Z,1006.46
2019-05-21T04:45:33.666Z,1006.40
2019-05-21T04:46:33.516Z,1006.40
2019-05-21T04:47:33.393Z,1006.40
2019-05-21T04:48:33.485Z,1006.43
2019-05-21T04:49:33.246Z,1006.41
2019-05-21T04:50:33.142Z,1006.36
2019-05-21T04:51:33.091Z,1006.35
2019-05-21T04:52:32.978Z,1006.38
2019-05-21T04:53:32.898Z,1006.35
2019-05-21T04:54:32.937Z,1006.36
2019-05-21T04:55:32.729Z,1006.33
2019-05-21T04:56:32.710Z,1006.34
2019-05-21T04:57:32.568Z,1006.33
2019-05-21T04:58:32.528Z,1006.37
2019-05-21T04:59:32.419Z,1006.34
2019-05-21T05:00:32.330Z,1006.34
2019-05-21T05:01:32.233Z,1006.41
2019-05-21T05:02:32.356Z,1006.40
2019-05-21T05:03:32.070Z,1006.45
2019-05-21T05:04:32.183Z,1006.49
2019-05-21T05:05:31.911Z,1006.43
2019-05-21T05:06:31.959Z,1006.44
2019-05-21T05:07:31.740Z,1006.43
2019-05-21T05:08:31.764Z,1006.45
2019-05-21T05:09:31.585Z,1006.44
2019-05-21T05:10:31.508Z,1006.49
2019-05-21T05:11:31.524Z,1006.53
2019-05-21T05:12:31.326Z,1006.55
2019-05-21T05:13:31.243Z,1006.58
2019-05-21T05:14:31.228Z,1006.58
2019-05-21T05:15:31.098Z,1006.63
2019-05-21T05:16:31.214Z,1006.67
2019-05-21T05:17:30.930Z,1006.68
2019-05-21T05:18:30.843Z,1006.72
2019-05-21T05:19:30.788Z,1006.69
2019-05-21T05:20:30.674Z,1006.75
2019-05-21T05:21:30.586Z,1006.75
2019-05-21T05:22:30.508Z,1006.78
2019-05-21T05:23:30.418Z,1006.76
2019-05-21T05:24:30.371Z,1006.79
2019-05-21T05:25:30.255Z,1006.73
2019-05-21T05:26:30.187Z,1006.76
2019-05-21T05:27:30.093Z,1006.82
2019-05-21T05:28:30.017Z,1006.77
2019-05-21T05:29:29.950Z,1006.80
2019-05-21T05:30:29.845Z,1006.83
2019-05-21T05:31:29.771Z,1006.82
2019-05-21T05:32:29.693Z,1006.82
2019-05-21T05:33:29.596Z,1006.82
2019-05-21T05:34:29.538Z,1006.86
2019-05-21T05:35:29.431Z,1006.88
2019-05-21T05:36:29.350Z,1006.88
2019-05-21T05:37:42.832Z,1006.86
2019-05-21T05:38:29.189Z,1006.89
2019-05-21T05:39:29.127Z,1006.89
2019-05-21T05:40:29.045Z,1006.96
2019-05-21T05:41:28.999Z,1006.97
2019-05-21T05:42:28.865Z,1006.93
2019-05-21T05:43:28.771Z,1006.96
2019-05-21T05:44:28.723Z,1006.99
2019-05-21T05:45:28.612Z,1006.98
2019-05-21T05:46:28.533Z,1006.93
2019-05-21T05:47:28.442Z,1006.94
2019-05-21T05:48:28.373Z,1006.95
2019-05-21T05:49:28.298Z,1006.99
2019-05-21T05:50:28.200Z,1006.95
2019-05-21T05:51:28.125Z,1006.99
2019-05-21T05:52:28.027Z,1006.95
2019-05-21T05:53:27.949Z,1006.97
2019-05-21T05:54:27.902Z,1006.96
2019-05-21T05:55:27.787Z,1006.98
2019-05-21T05:56:27.710Z,1007.06
2019-05-21T05:57:27.619Z,1007.01
2019-05-21T05:58:27.591Z,1007.06
2019-05-21T05:59:27.458Z,1007.06
2019-05-21T06:00:27.386Z,1007.07
2019-05-21T06:01:27.294Z,1007.08
2019-05-21T06:02:27.214Z,1007.07
2019-05-21T06:03:27.130Z,1007.05
2019-05-21T06:04:30.413Z,1007.05
2019-05-21T06:05:26.976Z,1007.10
2019-05-21T06:06:26.885Z,1007.09
2019-05-21T06:07:26.797Z,1007.10
2019-05-21T06:08:26.726Z,1007.16
2019-05-21T06:09:26.642Z,1007.14
2019-05-21T06:10:26.567Z,1007.15
2019-05-21T06:11:26.470Z,1007.12
2019-05-21T06:12:26.397Z,1007.16
2019-05-21T06:13:26.304Z,1007.18
2019-05-21T06:14:26.229Z,1007.18
2019-05-21T06:15:26.155Z,1007.23
2019-05-21T06:16:26.117Z,1007.16
2019-05-21T06:17:25.981Z,1007.13
2019-05-21T06:18:25.902Z,1007.21
2019-05-21T06:19:25.839Z,1007.13
2019-05-21T06:20:25.740Z,1007.19
2019-05-21T06:21:25.652Z,1007.20
2019-05-21T06:22:25.562Z,1007.18
2019-05-21T06:23:25.492Z,1007.21
2019-05-21T06:24:25.398Z,1007.21
2019-05-21T06:25:25.338Z,1007.17
2019-05-21T06:26:25.234Z,1007.26
2019-05-21T06:27:25.155Z,1007.29
2019-05-21T06:28:25.071Z,1007.28
2019-05-21T06:29:24.991Z,1007.31
2019-05-21T06:30:24.916Z,1007.25
2019-05-21T06:31:24.897Z,1007.27
2019-05-21T06:32:24.756Z,1007.27
2019-05-21T06:33:24.659Z,1007.28
2019-05-21T06:34:24.580Z,1007.30
2019-05-21T06:35:24.516Z,1007.32
2019-05-21T06:36:24.410Z,1007.32
2019-05-21T06:37:24.322Z,1007.37
2019-05-21T06:38:24.254Z,1007.38
2019-05-21T06:39:24.164Z,1007.38
2019-05-21T06:40:24.097Z,1007.39
2019-05-21T06:41:24.000Z,1007.33
2019-05-21T06:42:23.931Z,1007.44
2019-05-21T06:43:23.845Z,1007.42
2019-05-21T06:44:23.762Z,1007.46
2019-05-21T06:45:23.701Z,1007.50
2019-05-21T06:46:23.587Z,1007.44
2019-05-21T06:47:23.517Z,1007.47
2019-05-21T06:48:23.434Z,1007.47
2019-05-21T06:49:23.343Z,1007.54
2019-05-21T06:50:23.273Z,1007.43
2019-05-21T06:51:23.186Z,1007.47
2019-05-21T06:52:23.090Z,1007.46
2019-05-21T06:53:23.010Z,1007.44
2019-05-21T06:54:22.926Z,1007.43
2019-05-21T06:55:22.869Z,1007.51
2019-05-21T06:56:22.759Z,1007.52
2019-05-21T06:57:22.685Z,1007.54
2019-05-21T06:58:22.621Z,1007.53
2019-05-21T06:59:22.515Z,1007.54
2019-05-21T07:00:22.455Z,1007.53
2019-05-21T07:01:28.281Z,1007.62
2019-05-21T07:02:22.268Z,1007.60
2019-05-21T07:03:22.200Z,1007.60
2019-05-21T07:04:22.102Z,1007.61
2019-05-21T07:05:22.038Z,1007.66
2019-05-21T07:06:21.949Z,1007.66
2019-05-21T07:07:21.863Z,1007.72
2019-05-21T07:08:34.266Z,1007.67
2019-05-21T07:09:21.696Z,1007.72
2019-05-21T07:10:21.629Z,1007.73
2019-05-21T07:11:21.528Z,1007.76
2019-05-21T07:12:21.468Z,1007.77
2019-05-21T07:13:21.364Z,1007.75
2019-05-21T07:14:21.285Z,1007.80
2019-05-21T07:15:21.218Z,1007.83
2019-05-21T07:16:21.132Z,1007.88
2019-05-21T07:17:21.035Z,1007.91
2019-05-21T07:18:20.962Z,1007.92
2019-05-21T07:19:20.877Z,1007.90
2019-05-21T07:20:20.808Z,1007.91
2019-05-21T07:21:20.709Z,1007.83
2019-05-21T07:22:20.642Z,1007.93
2019-05-21T07:23:20.553Z,1007.96
2019-05-21T07:24:20.472Z,1007.99
2019-05-21T07:25:20.393Z,1008.04
2019-05-21T07:26:20.382Z,1008.04
2019-05-21T07:27:20.213Z,1008.05
2019-05-21T07:28:20.154Z,1008.09
2019-05-21T07:29:20.098Z,1008.07
2019-05-21T07:30:19.991Z,1008.14
2019-05-21T07:31:19.887Z,1008.18
2019-05-21T07:32:19.816Z,1008.19
2019-05-21T07:33:19.730Z,1008.15
2019-05-21T07:34:19.678Z,1008.15
2019-05-21T07:35:19.565Z,1008.16
2019-05-21T07:36:19.483Z,1008.19
2019-05-21T07:37:19.395Z,1008.16
2019-05-21T07:38:19.310Z,1008.22
2019-05-21T07:39:19.239Z,1008.22
2019-05-21T07:40:19.175Z,1008.20
2019-05-21T07:41:20.338Z,1008.20
2019-05-21T07:42:19.045Z,1008.20
2019-05-21T07:43:18.897Z,1008.16
2019-05-21T07:44:18.824Z,1008.19
2019-05-21T07:45:18.759Z,1008.24
2019-05-21T07:46:18.663Z,1008.22
2019-05-21T07:47:18.575Z,1008.22
2019-05-21T07:48:18.514Z,1008.27
2019-05-21T07:49:18.403Z,1008.25
2019-05-21T07:50:18.343Z,1008.30
2019-05-21T07:51:18.256Z,1008.33
2019-05-21T07:52:18.172Z,1008.27
2019-05-21T07:53:18.078Z,1008.28
2019-05-21T07:54:17.991Z,1008.32
2019-05-21T07:55:17.932Z,1008.30
2019-05-21T07:56:17.844Z,1008.31
2019-05-21T07:57:17.746Z,1008.32
2019-05-21T07:58:17.670Z,1008.30
2019-05-21T07:59:17.589Z,1008.33
2019-05-21T08:00:17.529Z,1008.39
2019-05-21T08:01:17.418Z,1008.37
2019-05-21T08:02:17.343Z,1008.34
2019-05-21T08:03:17.255Z,1008.41
2019-05-21T08:04:17.174Z,1008.42
2019-05-21T08:05:17.112Z,1008.43
2019-05-21T08:06:17.019Z,1008.44
2019-05-21T08:07:16.931Z,1008.45
2019-05-21T08:08:16.842Z,1008.44
2019-05-21T08:09:16.756Z,1008.46
2019-05-21T08:10:16.713Z,1008.46
2019-05-21T08:11:16.597Z,1008.46
2019-05-21T08:12:35.431Z,1008.44
2019-05-21T08:13:16.439Z,1008.46
2019-05-21T08:14:16.364Z,1008.46
2019-05-21T08:15:16.275Z,1008.45
2019-05-21T08:16:16.212Z,1008.53
2019-05-21T08:17:16.121Z,1008.51
2019-05-21T08:18:16.023Z,1008.53
2019-05-21T08:19:15.945Z,1008.58
2019-05-21T08:20:15.871Z,1008.52
2019-05-21T08:21:15.787Z,1008.54
2019-05-21T08:22:15.698Z,1008.49
2019-05-21T08:23:15.619Z,1008.43
2019-05-21T08:24:15.531Z,1008.51
2019-05-21T08:25:15.454Z,1008.49
2019-05-21T08:26:15.381Z,1008.53
2019-05-21T08:27:15.293Z,1008.62
2019-05-21T08:28:15.203Z,1008.62
2019-05-21T08:29:15.121Z,1008.64
2019-05-21T08:30:15.038Z,1008.68
2019-05-21T08:31:14.968Z,1008.72
2019-05-21T08:32:14.876Z,1008.72
2019-05-21T08:33:14.807Z,1008.71
2019-05-21T08:34:14.714Z,1008.78
2019-05-21T08:35:14.621Z,1008.75
2019-05-21T08:36:14.572Z,1008.85
2019-05-21T08:37:14.473Z,1008.90
2019-05-21T08:38:14.382Z,1008.86
2019-05-21T08:39:27.650Z,1008.97
2019-05-21T08:40:14.219Z,1008.94
2019-05-21T08:41:14.179Z,1008.94
2019-05-21T08:42:14.053Z,1008.93
2019-05-21T08:43:13.994Z,1008.95
2019-05-21T08:44:13.880Z,1008.96
2019-05-21T08:45:13.798Z,1008.98
2019-05-21T08:46:13.745Z,1008.85
2019-05-21T08:47:13.633Z,1008.92
2019-05-21T08:48:13.564Z,1008.93
2019-05-21T08:49:13.470Z,1008.86
2019-05-21T08:50:13.392Z,1008.87
2019-05-21T08:51:13.329Z,1008.84
2019-05-21T08:52:13.229Z,1008.82
2019-05-21T08:53:13.149Z,1008.89
2019-05-21T08:54:13.096Z,1008.87
2019-05-21T08:55:12.980Z,1008.91
2019-05-21T08:56:12.928Z,1008.98
2019-05-21T08:57:12.813Z,1009.01
2019-05-21T08:58:12.732Z,1009.00
2019-05-21T08:59:12.657Z,1009.02
2019-05-21T09:00:12.572Z,1009.05
2019-05-21T09:01:12.493Z,1009.03
2019-05-21T09:02:12.427Z,1009.04
2019-05-21T09:03:12.333Z,1009.03
2019-05-21T09:04:12.246Z,1009.05
2019-05-21T09:05:12.160Z,1009.07
2019-05-21T09:06:12.099Z,1009.11
2019-05-21T09:07:11.990Z,1009.09
2019-05-21T09:08:11.908Z,1009.10
2019-05-21T09:09:11.824Z,1009.13
2019-05-21T09:10:11.749Z,1009.20
2019-05-21T09:11:11.670Z,1009.21
2019-05-21T09:12:11.585Z,1009.26
2019-05-21T09:13:11.616Z,1009.31
2019-05-21T09:14:11.451Z,1009.33
2019-05-21T09:15:11.333Z,1009.26
2019-05-21T09:16:11.264Z,1009.25
2019-05-21T09:17:11.163Z,1009.28
2019-05-21T09:18:11.090Z,1009.29
2019-05-21T09:19:10.998Z,1009.27
2019-05-21T09:20:10.926Z,1009.30
2019-05-21T09:21:10.844Z,1009.38
2019-05-21T09:22:10.753Z,1009.29
2019-05-21T09:23:10.681Z,1009.40
2019-05-21T09:24:10.604Z,1009.32
2019-05-21T09:25:10.503Z,1009.39
2019-05-21T09:26:10.440Z,1009.42
2019-05-21T09:27:10.344Z,1009.43
2019-05-21T09:28:10.257Z,1009.44
2019-05-21T09:29:10.192Z,1009.57
2019-05-21T09:30:10.100Z,1009.54
2019-05-21T09:31:10.048Z,1009.52
2019-05-21T09:32:09.940Z,1009.43
2019-05-21T09:33:09.848Z,1009.49
2019-05-21T09:34:09.777Z,1009.45
2019-05-21T09:35:09.690Z,1009.52
2019-05-21T09:36:09.613Z,1009.46
2019-05-21T09:37:19.401Z,1009.48
2019-05-21T09:38:09.446Z,1009.50
2019-05-21T09:39:09.361Z,1009.52
2019-05-21T09:40:09.274Z,1009.53
2019-05-21T09:41:09.209Z,1009.57
2019-05-21T09:42:09.106Z,1009.59
2019-05-21T09:43:09.043Z,1009.54
2019-05-21T09:44:08.948Z,1009.56
2019-05-21T09:45:08.881Z,1009.63
2019-05-21T09:46:08.793Z,1009.61
2019-05-21T09:47:08.743Z,1009.67
2019-05-21T09:48:08.623Z,1009.62
2019-05-21T09:49:08.537Z,1009.63
2019-05-21T09:50:08.465Z,1009.63
2019-05-21T09:51:08.394Z,1009.60
2019-05-21T09:52:08.288Z,1009.67
2019-05-21T09:53:08.212Z,1009.68
2019-05-21T09:54:08.129Z,1009.70
2019-05-21T09:55:08.046Z,1009.67
2019-05-21T09:56:07.977Z,1009.68
2019-05-21T09:57:07.879Z,1009.71
2019-05-21T09:58:07.795Z,1009.74
2019-05-21T09:59:07.740Z,1009.69
2019-05-21T10:00:07.639Z,1009.72
2019-05-21T10:01:07.563Z,1009.78
2019-05-21T10:02:07.463Z,1009.80
2019-05-21T10:03:07.401Z,1009.73
2019-05-21T10:04:07.303Z,1009.75
2019-05-21T10:05:07.230Z,1009.76
2019-05-21T10:06:07.161Z,1009.82
2019-05-21T10:07:07.068Z,1009.76
2019-05-21T10:08:06.992Z,1009.73
2019-05-21T10:09:06.898Z,1009.72
2019-05-21T10:10:06.811Z,1009.72
2019-05-21T10:11:06.760Z,1009.77
2019-05-21T10:12:06.644Z,1009.78
2019-05-21T10:13:06.567Z,1009.85
2019-05-21T10:14:06.490Z,1009.80
2019-05-21T10:15:06.404Z,1009.75
2019-05-21T10:16:06.319Z,1009.77
2019-05-21T10:17:06.261Z,1009.78
2019-05-21T10:18:06.157Z,1009.80
2019-05-21T10:19:06.076Z,1009.80
2019-05-21T10:20:05.997Z,1009.70
2019-05-21T10:21:05.906Z,1009.71
2019-05-21T10:22:05.939Z,1009.74
2019-05-21T10:23:05.748Z,1009.79
2019-05-21T10:24:05.664Z,1009.76
2019-05-21T10:25:05.593Z,1009.84
2019-05-21T10:26:05.496Z,1009.85
2019-05-21T10:27:05.441Z,1009.88
2019-05-21T10:28:05.341Z,1009.85
2019-05-21T10:29:05.266Z,1009.89
2019-05-21T10:30:05.173Z,1009.85
2019-05-21T10:31:05.100Z,1009.90
2019-05-21T10:32:05.024Z,1009.91
2019-05-21T10:33:04.928Z,1009.90
2019-05-21T10:34:04.848Z,1009.89
2019-05-21T10:35:05.040Z,1009.93
2019-05-21T10:36:04.679Z,1009.90
2019-05-21T10:37:04.616Z,1009.93
2019-05-21T10:38:04.521Z,1010.03
2019-05-21T10:39:04.434Z,1009.99
2019-05-21T10:40:04.360Z,1009.96
2019-05-21T10:41:04.273Z,1010.04
2019-05-21T10:42:04.205Z,1009.99
2019-05-21T10:43:04.129Z,1009.98
2019-05-21T10:44:04.031Z,1009.97
2019-05-21T10:45:03.943Z,1009.98
2019-05-21T10:46:03.863Z,1010.02
2019-05-21T10:47:03.793Z,1010.05
2019-05-21T10:48:03.699Z,1009.98
2019-05-21T10:49:03.618Z,1010.07
2019-05-21T10:50:03.533Z,1010.06
2019-05-21T10:51:03.448Z,1010.06
2019-05-21T10:52:03.392Z,1010.03
2019-05-21T10:53:03.291Z,1010.03
2019-05-21T10:54:03.210Z,1010.04
2019-05-21T10:55:03.127Z,1010.09
2019-05-21T10:56:03.211Z,1010.04
2019-05-21T10:57:02.978Z,1010.04
2019-05-21T10:58:02.886Z,1010.06
2019-05-21T10:59:02.808Z,1010.03
2019-05-21T11:00:02.717Z,1010.06
2019-05-21T11:01:02.635Z,1010.12
2019-05-21T11:02:02.579Z,1010.12
2019-05-21T11:03:02.472Z,1010.08
2019-05-21T11:04:02.384Z,1010.09
2019-05-21T11:05:02.312Z,1010.11
2019-05-21T11:06:10.218Z,1010.10
2019-05-21T11:07:02.190Z,1010.10
2019-05-21T11:08:22.847Z,1010.17
2019-05-21T11:09:01.974Z,1010.13
2019-05-21T11:10:01.907Z,1010.16
2019-05-21T11:11:01.818Z,1010.10
2019-05-21T11:12:01.746Z,1010.17
2019-05-21T11:13:01.645Z,1010.20
2019-05-21T11:14:01.577Z,1010.20
2019-05-21T11:15:01.493Z,1010.21
2019-05-21T11:16:01.420Z,1010.20
2019-05-21T11:17:01.351Z,1010.22
2019-05-21T11:18:10.642Z,1010.30
2019-05-21T11:19:01.161Z,1010.22
2019-05-21T11:20:01.083Z,1010.26
2019-05-21T11:21:01.008Z,1010.20
2019-05-21T11:22:00.932Z,1010.26
2019-05-21T11:23:00.834Z,1010.33
2019-05-21T11:24:00.827Z,1010.36
2019-05-21T11:25:00.677Z,1010.36
2019-05-21T11:26:00.589Z,1010.34
2019-05-21T11:27:00.531Z,1010.39
2019-05-21T11:28:00.423Z,1010.37
2019-05-21T11:29:00.345Z,1010.35
2019-05-21T11:30:00.273Z,1010.36
2019-05-21T11:31:00.181Z,1010.33
2019-05-21T11:32:00.106Z,1010.34
2019-05-21T11:33:00.015Z,1010.35
2019-05-21T11:33:59.934Z,1010.35
2019-05-21T11:34:59.857Z,1010.38
2019-05-21T11:35:59.763Z,1010.44
2019-05-21T11:36:59.725Z,1010.42
2019-05-21T11:37:59.599Z,1010.45
2019-05-21T11:38:59.523Z,1010.47
2019-05-21T11:39:59.447Z,1010.43
2019-05-21T11:40:59.380Z,1010.45
2019-05-21T11:41:59.279Z,1010.49
2019-05-21T11:42:59.252Z,1010.51
2019-05-21T11:43:59.113Z,1010.52
2019-05-21T11:44:59.029Z,1010.58
2019-05-21T11:46:02.692Z,1010.52
2019-05-21T11:46:58.864Z,1010.58
2019-05-21T11:47:58.796Z,1010.64
2019-05-21T11:48:58.708Z,1010.65
2019-05-21T11:49:58.634Z,1010.61
2019-05-21T11:50:58.548Z,1010.63
2019-05-21T11:51:58.458Z,1010.60
2019-05-21T11:52:58.396Z,1010.55
2019-05-21T11:53:58.295Z,1010.56
2019-05-21T11:54:58.215Z,1010.55
2019-05-21T11:55:58.137Z,1010.59
2019-05-21T11:56:58.159Z,1010.58
2019-05-21T11:57:57.979Z,1010.67
2019-05-21T11:58:57.899Z,1010.60
2019-05-21T11:59:57.799Z,1010.65
2019-05-21T12:00:57.729Z,1010.63
2019-05-21T12:01:57.654Z,1010.66
2019-05-21T12:02:57.600Z,1010.64
2019-05-21T12:03:57.476Z,1010.63
2019-05-21T12:04:57.405Z,1010.62